createdAt,value
2022-12-25T00:01:14.628Z,6.28
2022-12-25T00:03:41.917Z,5.82
2022-12-25T00:06:09.036Z,7.00
2022-12-25T00:08:37.256Z,6.80
2022-12-25T00:11:07.443Z,7.32
2022-12-25T00:13:34.734Z,7.07
2022-12-25T00:16:07.065Z,7.20
2022-12-25T00:18:34.049Z,6.93
2022-12-25T00:21:03.726Z,7.60
2022-12-25T00:23:31.208Z,7.60
2022-12-25T00:25:58.520Z,8.13
2022-12-25T00:28:25.920Z,6.90
2022-12-25T00:30:52.963Z,6.85
2022-12-25T00:33:19.972Z,7.20
2022-12-25T00:36:01.056Z,7.78
2022-12-25T00:38:28.495Z,8.93
2022-12-25T00:40:55.451Z,7.45
2022-12-25T00:43:22.323Z,7.65
2022-12-25T00:45:59.919Z,8.23
2022-12-25T00:48:27.949Z,8.05
2022-12-25T00:51:00.135Z,6.97
2022-12-25T00:53:28.323Z,7.47
2022-12-25T00:55:58.289Z,7.57
2022-12-25T00:58:26.943Z,7.57
2022-12-25T01:00:54.379Z,8.35
2022-12-25T01:03:21.376Z,8.18
2022-12-25T01:06:03.412Z,7.45
2022-12-25T01:08:33.279Z,8.23
2022-12-25T01:11:03.895Z,7.95
2022-12-25T01:13:31.955Z,7.85
2022-12-25T01:15:58.874Z,7.55
2022-12-25T01:18:26.081Z,8.00
2022-12-25T01:20:53.027Z,7.80
2022-12-25T01:23:19.913Z,8.73
2022-12-25T01:25:46.788Z,7.85
2022-12-25T01:28:13.920Z,8.52
2022-12-25T01:30:47.458Z,8.52
2022-12-25T01:33:14.312Z,8.68
2022-12-25T01:35:42.065Z,8.68
2022-12-25T01:38:09.266Z,8.65
2022-12-25T01:40:36.168Z,8.27
2022-12-25T01:43:03.016Z,8.30
2022-12-25T01:45:55.413Z,8.98
2022-12-25T01:48:30.767Z,7.80
2022-12-25T01:53:37.028Z,9.20
2022-12-25T01:56:07.191Z,9.02
2022-12-25T01:58:35.374Z,8.75
2022-12-25T02:01:05.615Z,9.13
2022-12-25T02:03:32.755Z,8.18
2022-12-25T02:06:01.410Z,9.00
2022-12-25T02:08:28.674Z,9.52
2022-12-25T02:10:55.600Z,8.65
2022-12-25T02:13:22.768Z,9.95
2022-12-25T02:15:55.820Z,8.70
2022-12-25T02:18:39.174Z,8.82
2022-12-25T02:21:24.903Z,8.82
2022-12-25T02:24:16.599Z,9.20
2022-12-25T02:27:00.649Z,8.80
2022-12-25T02:29:36.339Z,8.52
2022-12-25T02:32:15.202Z,9.10
2022-12-25T02:34:51.308Z,8.90
2022-12-25T02:37:43.220Z,9.20
2022-12-25T02:40:20.874Z,9.98
2022-12-25T02:43:19.831Z,9.07
2022-12-25T02:46:16.047Z,10.00
2022-12-25T02:52:00.523Z,9.85
2022-12-25T02:54:57.249Z,9.50
2022-12-25T02:57:51.034Z,9.07
2022-12-25T03:00:36.497Z,10.15
2022-12-25T03:03:26.145Z,10.00
2022-12-25T03:06:15.810Z,9.85
2022-12-25T03:08:46.181Z,9.55
2022-12-25T03:11:31.590Z,9.30
2022-12-25T03:14:21.294Z,9.27
2022-12-25T03:16:50.888Z,8.93
2022-12-25T03:19:37.498Z,9.32
2022-12-25T03:22:25.583Z,9.50
2022-12-25T03:25:11.004Z,9.15
2022-12-25T03:27:40.857Z,8.82
2022-12-25T03:30:26.806Z,9.07
2022-12-25T03:33:23.598Z,8.60
2022-12-25T03:36:28.078Z,8.75
2022-12-25T03:39:30.354Z,8.55
2022-12-25T03:42:20.526Z,8.73
2022-12-25T03:45:26.522Z,8.10
2022-12-25T03:48:19.188Z,9.05
2022-12-25T03:51:14.717Z,7.25
2022-12-25T03:54:04.516Z,7.60
2022-12-25T03:56:51.506Z,8.55
2022-12-25T03:59:41.050Z,7.18
2022-12-25T04:02:27.185Z,7.75
2022-12-25T04:05:13.179Z,7.90
2022-12-25T04:07:58.620Z,6.85
2022-12-25T04:10:44.154Z,6.88
2022-12-25T04:13:29.682Z,7.50
2022-12-25T04:16:15.330Z,7.30
2022-12-25T04:19:00.612Z,7.30
2022-12-25T04:21:45.935Z,7.68
2022-12-25T04:24:31.555Z,7.25
2022-12-25T04:27:16.983Z,7.28
2022-12-25T04:30:02.787Z,6.70
2022-12-25T04:32:48.455Z,8.45
2022-12-25T04:35:34.070Z,7.07
2022-12-25T04:38:00.970Z,7.32
2022-12-25T04:40:27.908Z,7.55
2022-12-25T04:42:54.897Z,7.50
2022-12-25T04:45:21.850Z,8.48
2022-12-25T04:47:48.831Z,7.80
2022-12-25T04:50:15.677Z,7.60
2022-12-25T04:52:42.676Z,7.72
2022-12-25T04:55:11.787Z,7.85
2022-12-25T04:57:39.904Z,8.68
2022-12-25T05:00:07.437Z,8.07
2022-12-25T05:02:34.901Z,7.97
2022-12-25T05:05:01.936Z,7.68
2022-12-25T05:07:28.842Z,7.95
2022-12-25T05:09:55.856Z,9.32
2022-12-25T05:12:22.997Z,8.88
2022-12-25T05:14:50.099Z,8.35
2022-12-25T05:17:17.094Z,9.57
2022-12-25T05:19:44.112Z,8.30
2022-12-25T05:22:11.006Z,9.63
2022-12-25T05:24:37.991Z,10.05
2022-12-25T05:27:05.008Z,10.20
2022-12-25T05:29:31.936Z,10.82
2022-12-25T05:31:58.862Z,9.50
2022-12-25T05:34:25.846Z,10.30
2022-12-25T05:36:52.823Z,9.60
2022-12-25T05:39:19.874Z,8.80
2022-12-25T05:41:46.863Z,8.57
2022-12-25T05:44:14.219Z,9.63
2022-12-25T05:46:41.192Z,9.52
2022-12-25T05:49:08.395Z,8.27
2022-12-25T05:51:35.266Z,8.45
2022-12-25T05:54:02.395Z,8.88
2022-12-25T05:56:29.285Z,9.30
2022-12-25T05:58:56.538Z,8.68
2022-12-25T06:01:26.915Z,8.63
2022-12-25T06:03:54.120Z,8.00
2022-12-25T06:06:21.100Z,7.72
2022-12-25T06:08:47.953Z,8.02
2022-12-25T06:11:15.937Z,7.20
2022-12-25T06:13:42.889Z,7.05
2022-12-25T06:16:12.183Z,6.82
2022-12-25T06:18:41.695Z,6.47
2022-12-25T06:21:10.461Z,6.18
2022-12-25T06:23:39.225Z,7.10
2022-12-25T06:26:08.321Z,6.45
2022-12-25T06:28:35.611Z,6.45
2022-12-25T06:31:09.608Z,6.32
2022-12-25T06:33:36.769Z,6.30
2022-12-25T06:36:12.539Z,6.95
2022-12-25T06:38:39.599Z,6.78
2022-12-25T06:41:09.170Z,7.45
2022-12-25T06:43:37.052Z,7.43
2022-12-25T06:46:10.023Z,7.68
2022-12-25T06:48:38.229Z,7.70
2022-12-25T06:51:06.427Z,7.00
2022-12-25T06:53:40.146Z,7.15
2022-12-25T06:56:10.394Z,7.43
2022-12-25T06:58:37.309Z,6.35
2022-12-25T07:01:15.499Z,6.45
2022-12-25T07:03:44.976Z,6.60
2022-12-25T07:06:11.904Z,6.55
2022-12-25T07:08:39.108Z,7.13
2022-12-25T07:11:07.261Z,7.60
2022-12-25T07:13:34.150Z,7.22
2022-12-25T07:16:03.760Z,7.93
2022-12-25T07:18:31.785Z,6.78
2022-12-25T07:21:01.848Z,7.43
2022-12-25T07:23:28.747Z,7.28
2022-12-25T07:25:57.126Z,7.55
2022-12-25T07:28:24.107Z,7.68
2022-12-25T07:30:51.262Z,8.25
2022-12-25T07:33:18.223Z,7.80
2022-12-25T07:35:45.831Z,8.30
2022-12-25T07:38:12.797Z,8.75
2022-12-25T07:40:39.745Z,7.68
2022-12-25T07:43:06.700Z,7.95
2022-12-25T07:45:33.881Z,8.73
2022-12-25T07:48:05.277Z,7.82
2022-12-25T07:50:33.435Z,9.68
2022-12-25T07:53:00.355Z,7.13
2022-12-25T07:55:27.262Z,7.97
2022-12-25T07:57:54.403Z,8.25
2022-12-25T08:00:21.578Z,8.20
2022-12-25T08:02:51.462Z,7.38
2022-12-25T08:05:18.513Z,8.13
2022-12-25T08:07:45.381Z,7.22
2022-12-25T08:10:12.334Z,7.45
2022-12-25T08:12:39.232Z,7.60
2022-12-25T08:15:06.725Z,6.93
2022-12-25T08:17:35.434Z,7.75
2022-12-25T08:20:02.291Z,7.13
2022-12-25T08:22:29.258Z,6.97
2022-12-25T08:24:56.199Z,6.88
2022-12-25T08:27:23.200Z,6.85
2022-12-25T08:29:50.118Z,7.25
2022-12-25T08:32:17.033Z,7.85
2022-12-25T08:34:43.908Z,7.60
2022-12-25T08:37:10.773Z,6.55
2022-12-25T08:39:37.652Z,6.78
2022-12-25T08:42:04.798Z,7.03
2022-12-25T08:44:31.917Z,6.35
2022-12-25T08:46:58.816Z,6.30
2022-12-25T08:49:29.168Z,6.28
2022-12-25T08:51:56.255Z,6.28
2022-12-25T08:54:24.924Z,6.15
2022-12-25T08:56:53.360Z,7.03
2022-12-25T08:59:22.978Z,5.97
2022-12-25T09:01:49.967Z,7.22
2022-12-25T09:04:16.946Z,7.28
2022-12-25T09:06:43.854Z,6.32
2022-12-25T09:09:10.968Z,6.97
2022-12-25T09:11:38.062Z,7.07
2022-12-25T09:14:04.942Z,6.95
2022-12-25T09:16:31.964Z,6.30
2022-12-25T09:18:59.322Z,7.45
2022-12-25T09:21:26.287Z,6.60
2022-12-25T09:23:53.262Z,6.15
2022-12-25T09:26:20.555Z,6.28
2022-12-25T09:28:51.903Z,6.30
2022-12-25T09:31:20.861Z,6.85
2022-12-25T09:33:48.621Z,6.30
2022-12-25T09:36:15.625Z,6.25
2022-12-25T09:38:42.727Z,5.47
2022-12-25T09:41:28.450Z,5.75
2022-12-25T09:44:04.572Z,5.40
2022-12-25T09:46:41.913Z,5.95
2022-12-25T09:49:23.905Z,5.50
2022-12-25T09:51:57.277Z,6.88
2022-12-25T09:54:47.360Z,5.10
2022-12-25T09:57:15.292Z,5.75
2022-12-25T09:59:44.326Z,5.82
2022-12-25T10:02:36.422Z,5.95
2022-12-25T10:05:18.461Z,5.78
2022-12-25T10:08:15.697Z,5.68
2022-12-25T10:11:00.688Z,5.22
2022-12-25T10:13:55.058Z,5.05
2022-12-25T10:16:30.837Z,4.80
2022-12-25T10:19:38.980Z,5.00
2022-12-25T10:22:15.671Z,4.70
2022-12-25T10:24:51.623Z,4.07
2022-12-25T10:27:34.381Z,4.50
2022-12-25T10:30:02.721Z,3.90
2022-12-25T10:32:29.647Z,4.63
2022-12-25T10:34:56.574Z,4.85
2022-12-25T10:37:24.728Z,4.43
2022-12-25T10:39:51.689Z,4.50
2022-12-25T10:42:55.693Z,4.35
2022-12-25T10:45:22.697Z,4.75
2022-12-25T10:47:54.383Z,4.22
2022-12-25T10:50:26.444Z,4.68
2022-12-25T10:53:04.959Z,4.20
2022-12-25T10:55:33.513Z,2.65
2022-12-25T10:58:02.178Z,2.80
2022-12-25T11:00:31.538Z,2.60
2022-12-25T11:02:59.723Z,2.85
2022-12-25T11:05:30.364Z,2.35
2022-12-25T11:08:00.297Z,2.90
2022-12-25T11:10:44.178Z,2.72
2022-12-25T11:13:21.167Z,2.67
2022-12-25T11:15:49.694Z,2.60
2022-12-25T11:18:23.229Z,2.90
2022-12-25T11:20:52.476Z,2.22
2022-12-25T11:23:21.558Z,2.65
2022-12-25T11:26:00.972Z,2.53
2022-12-25T11:28:30.352Z,2.28
2022-12-25T11:31:21.556Z,2.80
2022-12-25T11:34:05.587Z,1.98
2022-12-25T11:36:45.097Z,2.83
2022-12-25T11:39:23.012Z,2.90
2022-12-25T11:42:11.961Z,3.05
2022-12-25T11:45:03.179Z,2.75
2022-12-25T11:47:39.198Z,3.33
2022-12-25T11:50:24.978Z,2.90
2022-12-25T11:52:52.898Z,2.70
2022-12-25T11:55:40.741Z,2.88
2022-12-25T11:58:33.494Z,2.67
2022-12-25T12:01:04.552Z,2.78
2022-12-25T12:03:37.204Z,2.40
2022-12-25T12:06:41.135Z,2.47
2022-12-25T12:09:45.121Z,2.63
2022-12-25T12:12:21.855Z,2.35
2022-12-25T12:15:12.803Z,2.38
2022-12-25T12:17:39.740Z,2.22
2022-12-25T12:20:32.853Z,2.70
2022-12-25T12:23:02.321Z,2.67
2022-12-25T12:25:31.017Z,2.95
2022-12-25T12:28:05.188Z,2.50
2022-12-25T12:30:35.738Z,2.97
2022-12-25T12:33:07.124Z,3.17
2022-12-25T12:35:39.670Z,2.67
2022-12-25T12:38:19.187Z,2.80
2022-12-25T12:41:07.534Z,2.72
2022-12-25T12:43:42.648Z,2.13
2022-12-25T12:49:26.078Z,2.58
2022-12-25T12:52:25.438Z,2.60
2022-12-25T12:55:00.111Z,2.00
2022-12-25T12:57:31.698Z,2.38
2022-12-25T13:00:04.837Z,2.38
2022-12-25T13:02:47.998Z,2.28
2022-12-25T13:05:34.268Z,2.78
2022-12-25T13:08:10.657Z,2.30
2022-12-25T13:10:41.555Z,2.45
2022-12-25T13:13:21.110Z,2.47
2022-12-25T13:15:50.168Z,2.70
2022-12-25T13:18:17.954Z,2.50
2022-12-25T13:20:55.398Z,2.78
2022-12-25T13:23:27.158Z,2.20
2022-12-25T13:25:59.481Z,2.50
2022-12-25T13:28:32.250Z,2.35
2022-12-25T13:31:17.490Z,2.65
2022-12-25T13:33:58.042Z,2.95
2022-12-25T13:36:27.142Z,3.78
2022-12-25T13:38:56.913Z,3.00
2022-12-25T13:41:47.955Z,3.35
2022-12-25T13:44:24.495Z,3.17
2022-12-25T13:46:51.855Z,3.42
2022-12-25T13:49:22.160Z,3.97
2022-12-25T13:51:49.843Z,3.10
2022-12-25T13:54:18.201Z,3.70
2022-12-25T13:56:51.118Z,3.75
2022-12-25T13:59:21.230Z,3.20
2022-12-25T14:01:50.045Z,3.05
2022-12-25T14:04:23.263Z,3.60
2022-12-25T14:06:51.776Z,3.50
2022-12-25T14:09:19.482Z,4.03
2022-12-25T14:11:51.421Z,4.40
2022-12-25T14:14:22.429Z,4.18
2022-12-25T14:16:53.557Z,3.95
2022-12-25T14:19:31.898Z,5.07
2022-12-25T14:22:21.283Z,5.05
2022-12-25T14:24:49.225Z,4.75
2022-12-25T14:27:30.457Z,4.63
2022-12-25T14:29:59.971Z,5.55
2022-12-25T14:32:30.618Z,5.70
2022-12-25T14:35:03.486Z,4.70
2022-12-25T14:37:33.383Z,5.20
2022-12-25T14:40:02.992Z,4.60
2022-12-25T14:42:35.138Z,5.40
2022-12-25T14:45:05.136Z,4.80
2022-12-25T14:47:39.433Z,5.28
2022-12-25T14:50:37.447Z,6.30
2022-12-25T14:53:04.731Z,5.75
2022-12-25T14:55:32.264Z,6.13
2022-12-25T14:58:04.722Z,6.32
2022-12-25T15:00:39.003Z,7.07
2022-12-25T15:03:24.364Z,7.03
2022-12-25T15:06:06.462Z,7.45
2022-12-25T15:08:35.633Z,7.15
2022-12-25T15:11:03.557Z,7.40
2022-12-25T15:13:31.928Z,7.20
2022-12-25T15:16:22.678Z,7.13
2022-12-25T15:18:51.016Z,8.02
2022-12-25T15:21:25.906Z,8.13
2022-12-25T15:23:54.297Z,9.52
2022-12-25T15:26:21.670Z,8.05
2022-12-25T15:28:48.896Z,8.60
2022-12-25T15:31:25.045Z,10.80
2022-12-25T15:33:56.921Z,10.30
2022-12-25T15:36:24.919Z,10.65
2022-12-25T15:38:52.211Z,11.13
2022-12-25T15:41:48.886Z,10.23
2022-12-25T15:44:16.357Z,9.70
2022-12-25T15:46:43.585Z,9.98
2022-12-25T15:49:11.014Z,10.85
2022-12-25T15:51:38.884Z,11.73
2022-12-25T15:54:06.397Z,11.05
2022-12-25T15:56:44.626Z,10.73
2022-12-25T15:59:13.173Z,8.30
2022-12-25T16:01:44.767Z,9.07
2022-12-25T16:04:12.046Z,8.52
2022-12-25T16:06:39.335Z,8.40
2022-12-25T16:09:06.264Z,9.77
2022-12-25T16:11:33.129Z,8.07
2022-12-25T16:14:00.121Z,8.60
2022-12-25T16:16:27.077Z,8.93
2022-12-25T16:18:54.028Z,8.85
2022-12-25T16:21:22.279Z,8.70
2022-12-25T16:23:49.182Z,8.55
2022-12-25T16:26:16.419Z,8.95
2022-12-25T16:28:43.492Z,8.95
2022-12-25T16:31:11.653Z,9.50
2022-12-25T16:33:38.606Z,8.80
2022-12-25T16:36:05.747Z,9.60
2022-12-25T16:38:33.931Z,9.43
2022-12-25T16:41:01.649Z,8.38
2022-12-25T16:43:28.862Z,8.95
2022-12-25T16:45:57.421Z,9.50
2022-12-25T16:48:24.360Z,9.85
2022-12-25T16:50:51.316Z,9.98
2022-12-25T16:53:18.202Z,10.23
2022-12-25T16:55:45.189Z,10.15
2022-12-25T16:58:12.155Z,9.90
2022-12-25T17:00:41.141Z,10.77
2022-12-25T17:03:10.164Z,10.15
2022-12-25T17:05:37.140Z,10.20
2022-12-25T17:08:04.254Z,12.02
2022-12-25T17:10:31.195Z,11.07
2022-12-25T17:12:58.126Z,10.45
2022-12-25T17:15:25.039Z,11.70
2022-12-25T17:17:51.974Z,11.27
2022-12-25T17:20:18.854Z,9.93
2022-12-25T17:22:48.820Z,9.27
2022-12-25T17:25:15.755Z,10.32
2022-12-25T17:27:42.709Z,10.15
2022-12-25T17:30:10.282Z,11.25
2022-12-25T17:32:37.259Z,10.15
2022-12-25T17:35:04.510Z,10.02
2022-12-25T17:37:32.370Z,9.90
2022-12-25T17:39:59.305Z,9.68
2022-12-25T17:42:26.222Z,10.52
2022-12-25T17:44:53.201Z,10.70
2022-12-25T17:47:20.061Z,10.88
2022-12-25T17:49:47.177Z,10.57
2022-12-25T17:52:14.016Z,10.55
2022-12-25T17:54:40.963Z,10.75
2022-12-25T17:57:07.869Z,10.85
2022-12-25T17:59:34.802Z,11.88
2022-12-25T18:02:01.773Z,12.35
2022-12-25T18:04:28.727Z,12.23
2022-12-25T18:06:55.717Z,11.43
2022-12-25T18:09:22.712Z,11.93
2022-12-25T18:11:49.660Z,11.85
2022-12-25T18:14:17.207Z,11.82
2022-12-25T18:16:45.763Z,12.23
2022-12-25T18:19:14.166Z,12.65
2022-12-25T18:21:41.491Z,12.30
2022-12-25T18:24:09.519Z,12.40
2022-12-25T18:26:38.317Z,13.27
2022-12-25T18:29:05.390Z,13.50
2022-12-25T18:31:33.198Z,13.70
2022-12-25T18:34:00.755Z,12.20
2022-12-25T18:36:29.209Z,11.68
2022-12-25T18:38:57.530Z,12.90
2022-12-25T18:41:24.693Z,13.13
2022-12-25T18:43:55.509Z,12.75
2022-12-25T18:46:25.556Z,13.90
2022-12-25T18:48:56.874Z,16.42
2022-12-25T18:51:24.599Z,14.93
2022-12-25T18:53:51.784Z,13.25
2022-12-25T18:56:20.082Z,14.15
2022-12-25T18:58:47.601Z,13.57
2022-12-25T19:01:17.313Z,13.25
2022-12-25T19:03:45.961Z,11.20
2022-12-25T19:06:21.721Z,13.35
2022-12-25T19:08:49.143Z,13.50
2022-12-25T19:11:16.816Z,12.57
2022-12-25T19:13:44.464Z,12.48
2022-12-25T19:16:11.775Z,12.68
2022-12-25T19:18:39.831Z,11.27
2022-12-25T19:21:09.164Z,10.77
2022-12-25T19:23:38.196Z,11.25
2022-12-25T19:26:07.089Z,11.75
2022-12-25T19:28:34.421Z,11.70
2022-12-25T19:31:02.765Z,12.20
2022-12-25T19:33:31.744Z,12.15
2022-12-25T19:36:08.209Z,13.23
2022-12-25T19:38:35.413Z,14.38
2022-12-25T19:41:10.477Z,14.27
2022-12-25T19:43:40.373Z,13.25
2022-12-25T19:46:10.645Z,13.93
2022-12-25T19:48:37.808Z,16.48
2022-12-25T19:51:04.818Z,16.55
2022-12-25T19:53:31.748Z,15.63
2022-12-25T19:56:02.535Z,15.15
2022-12-25T19:58:30.215Z,15.48
2022-12-25T20:01:02.457Z,16.35
2022-12-25T20:03:29.617Z,15.88
2022-12-25T20:05:56.691Z,15.88
2022-12-25T20:08:23.869Z,16.70
2022-12-25T20:10:51.595Z,14.43
2022-12-25T20:13:19.496Z,16.55
2022-12-25T20:15:47.372Z,14.73
2022-12-25T20:18:14.442Z,16.13
2022-12-25T20:20:41.359Z,16.15
2022-12-25T20:23:08.256Z,16.88
2022-12-25T20:25:40.439Z,14.43
2022-12-25T20:28:07.510Z,16.73
2022-12-25T20:30:34.543Z,17.02
2022-12-25T20:33:01.873Z,17.23
2022-12-25T20:35:28.728Z,17.73
2022-12-25T20:37:55.587Z,16.92
2022-12-25T20:40:22.454Z,16.85
2022-12-25T20:42:49.332Z,16.55
2022-12-25T20:45:16.304Z,17.38
2022-12-25T20:47:43.199Z,18.27
2022-12-25T20:50:10.276Z,18.83
2022-12-25T20:52:38.179Z,17.40
2022-12-25T20:55:05.463Z,18.88
2022-12-25T20:57:32.648Z,21.23
2022-12-25T20:59:59.563Z,19.98
2022-12-25T21:02:34.939Z,18.45
2022-12-25T21:05:04.623Z,18.77
2022-12-25T21:07:31.539Z,17.08
2022-12-25T21:09:59.423Z,16.40
2022-12-25T21:12:26.393Z,16.92
2022-12-25T21:14:53.244Z,19.52
2022-12-25T21:17:20.283Z,17.17
2022-12-25T21:19:47.185Z,16.27
2022-12-25T21:22:14.278Z,17.33
2022-12-25T21:24:41.162Z,18.10
2022-12-25T21:27:08.888Z,17.55
2022-12-25T21:29:35.789Z,17.83
2022-12-25T21:32:21.407Z,18.15
2022-12-25T21:34:48.285Z,18.08
2022-12-25T21:37:15.201Z,19.65
2022-12-25T21:39:42.111Z,19.42
2022-12-25T21:42:10.692Z,22.48
2022-12-25T21:44:37.829Z,23.42
2022-12-25T21:47:04.828Z,20.75
2022-12-25T21:49:50.165Z,22.40
2022-12-25T21:52:17.635Z,23.02
2022-12-25T21:54:44.639Z,24.80
2022-12-25T21:57:11.584Z,24.80
2022-12-25T21:59:38.551Z,23.98
2022-12-25T22:02:11.531Z,23.83
2022-12-25T22:04:39.067Z,18.98
2022-12-25T22:07:17.990Z,17.25
2022-12-25T22:09:48.863Z,15.88
2022-12-25T22:12:36.868Z,14.05
2022-12-25T22:15:06.994Z,15.55
2022-12-25T22:17:53.927Z,14.75
2022-12-25T22:20:22.504Z,15.65
2022-12-25T22:22:50.021Z,15.80
2022-12-25T22:25:18.025Z,14.93
2022-12-25T22:27:46.882Z,15.98
2022-12-25T22:30:19.887Z,14.65
2022-12-25T22:32:47.275Z,14.70
2022-12-25T22:35:17.046Z,15.30
2022-12-25T22:37:45.054Z,17.65
2022-12-25T22:40:15.433Z,15.00
2022-12-25T22:42:42.508Z,15.77
2022-12-25T22:45:10.384Z,15.50
2022-12-25T22:47:37.390Z,16.52
2022-12-25T22:50:05.200Z,16.77
2022-12-25T22:52:32.176Z,17.98
2022-12-25T22:54:59.143Z,22.40
2022-12-25T22:57:26.036Z,20.10
2022-12-25T22:59:53.165Z,20.52
2022-12-25T23:02:20.400Z,20.75
2022-12-25T23:04:47.736Z,20.13
2022-12-25T23:07:15.760Z,19.65
2022-12-25T23:09:43.827Z,20.23
2022-12-25T23:12:34.136Z,20.60
2022-12-25T23:15:01.095Z,20.05
2022-12-25T23:17:46.482Z,20.70
2022-12-25T23:20:33.576Z,19.38
2022-12-25T23:23:19.765Z,18.00
2022-12-25T23:26:05.423Z,16.45
2022-12-25T23:28:50.989Z,19.15
2022-12-25T23:31:20.598Z,16.27
2022-12-25T23:33:47.724Z,16.42
2022-12-25T23:36:14.631Z,15.32
2022-12-25T23:38:41.590Z,15.90
2022-12-25T23:41:08.499Z,16.60
2022-12-25T23:43:35.394Z,15.23
2022-12-25T23:46:02.379Z,15.73
2022-12-25T23:48:29.480Z,16.23
2022-12-25T23:50:56.691Z,15.57
2022-12-25T23:53:23.615Z,15.90
2022-12-25T23:55:55.656Z,16.27
2022-12-25T23:58:23.093Z,15.80
